Time;durP1;ratioP1;P1;durP2;ratioP2;P2;SDS_P1;SDS_P2;PMS_P1;PMS_P2;Temp;Humidity;BMP_temperature;BMP_pressure;BME280_temperature;BME280_humidity;BME280_pressure;Samples;Min_cycle;Max_cycle;Signal;HPM_P1;HPM_P2
2023/11/28 00:02:23;;;;;;;90.00;50.90;;;;;;;-1.57;81.39;95419.83;104746;1259;98460;-77
2023/11/28 00:04:51;;;;;;;93.80;51.50;;;;;;;-1.54;81.48;95414.40;104778;1265;102793;-75
2023/11/28 00:07:19;;;;;;;92.70;54.30;;;;;;;-1.52;81.52;95410.65;104803;1259;111165;-75
2023/11/28 00:09:47;;;;;;;105.70;57.70;;;;;;;-1.51;81.53;95410.38;104815;1261;98993;-75
2023/11/28 00:12:14;;;;;;;124.00;69.20;;;;;;;-1.51;81.53;95406.39;104817;1259;97932;-74
2023/11/28 00:14:42;;;;;;;117.10;62.00;;;;;;;-1.49;81.61;95403.50;104683;1261;98424;-76
2023/11/28 00:17:10;;;;;;;123.70;67.10;;;;;;;-1.47;81.59;95400.50;104765;1256;103599;-74
2023/11/28 00:19:38;;;;;;;118.30;62.00;;;;;;;-1.47;81.71;95403.84;104719;1259;100387;-76
2023/11/28 00:22:06;;;;;;;120.10;64.10;;;;;;;-1.48;81.64;95408.48;104691;1260;99304;-75
2023/11/28 00:24:34;;;;;;;141.00;71.50;;;;;;;-1.48;81.65;95406.00;104766;1256;98035;-75
2023/11/28 00:27:03;;;;;;;126.50;67.70;;;;;;;-1.47;81.74;95401.32;104794;1262;99141;-75
2023/11/28 00:29:31;;;;;;;121.30;66.80;;;;;;;-1.44;81.74;95401.02;104782;1262;103555;-75
2023/11/28 00:32:00;;;;;;;128.40;68.40;;;;;;;-1.43;81.76;95402.15;104816;1259;101476;-83
2023/11/28 00:34:28;;;;;;;129.90;68.40;;;;;;;-1.43;81.86;95398.54;104597;1262;99179;-74
2023/11/28 00:36:57;;;;;;;136.90;67.40;;;;;;;-1.42;81.89;95397.24;104733;1257;97950;-73
2023/11/28 00:39:25;;;;;;;131.30;69.50;;;;;;;-1.41;81.99;95395.19;104740;1259;97930;-73
2023/11/28 00:41:54;;;;;;;137.10;70.40;;;;;;;-1.41;81.89;95389.33;104720;1259;103629;-73
2023/11/28 00:44:22;;;;;;;136.70;69.80;;;;;;;-1.41;81.95;95386.52;104527;1273;101427;-74
2023/11/28 00:46:50;;;;;;;128.70;67.20;;;;;;;-1.41;81.97;95385.63;104836;1259;99165;-83
2023/11/28 00:49:18;;;;;;;123.30;69.40;;;;;;;-1.41;82.06;95383.88;104721;1259;97982;-84
2023/11/28 00:51:46;;;;;;;127.50;70.10;;;;;;;-1.40;82.14;95381.77;104796;1260;98533;-84
2023/11/28 00:54:14;;;;;;;130.20;68.30;;;;;;;-1.39;82.13;95378.48;104762;1259;103954;-74
2023/11/28 00:56:42;;;;;;;120.90;67.60;;;;;;;-1.39;82.14;95377.21;104805;1269;100397;-73
2023/11/28 00:59:10;;;;;;;115.20;65.90;;;;;;;-1.38;82.14;95373.08;104761;1270;99525;-76
2023/11/28 01:01:38;;;;;;;107.20;63.00;;;;;;;-1.38;82.18;95368.84;104788;1259;98839;-82
2023/11/28 01:04:06;;;;;;;100.90;61.10;;;;;;;-1.37;82.22;95362.42;104761;1259;98429;-81
2023/11/28 01:06:34;;;;;;;97.50;60.60;;;;;;;-1.37;82.27;95362.67;104911;1269;103272;-83
2023/11/28 01:09:03;;;;;;;100.30;61.40;;;;;;;-1.37;82.30;95358.98;104776;1259;100020;-74
2023/11/28 01:11:31;;;;;;;100.40;61.20;;;;;;;-1.36;82.34;95351.98;104764;1259;99982;-83
2023/11/28 01:13:59;;;;;;;88.60;57.40;;;;;;;-1.35;82.36;95344.98;104755;1259;98738;-84
2023/11/28 01:16:27;;;;;;;94.30;61.70;;;;;;;-1.33;82.30;95335.43;104611;1259;214300;-83
2023/11/28 01:18:55;;;;;;;96.10;61.00;;;;;;;-1.31;82.40;95329.04;104803;1256;103435;-82
2023/11/28 01:21:23;;;;;;;92.10;57.40;;;;;;;-1.30;82.41;95319.36;104766;1259;101198;-81
2023/11/28 01:23:51;;;;;;;84.80;53.80;;;;;;;-1.29;82.40;95312.86;104710;1259;99098;-82
2023/11/28 01:26:19;;;;;;;89.80;74.10;;;;;;;-1.28;82.38;95307.59;104769;1259;99265;-83
2023/11/28 01:28:54;;;;;;;86.50;56.40;;;;;;;-1.28;82.35;95304.25;104686;1259;98462;-84
2023/11/28 01:31:24;;;;;;;77.80;50.10;;;;;;;-1.28;82.40;95300.98;104743;1259;103679;-83
2023/11/28 01:33:52;;;;;;;83.00;51.40;;;;;;;-1.28;82.45;95299.52;104305;1266;101465;-75
2023/11/28 01:36:21;;;;;;;87.60;53.10;;;;;;;-1.27;82.57;95295.83;104464;1264;100235;-74
2023/11/28 01:38:49;;;;;;;77.20;51.00;;;;;;;-1.25;82.60;95291.41;104459;1262;99378;-76
2023/11/28 01:41:16;;;;;;;85.30;53.20;;;;;;;-1.25;82.57;95286.07;104514;1262;98651;-75
2023/11/28 01:43:44;;;;;;;84.60;54.90;;;;;;;-1.25;82.53;95280.98;104530;1262;103448;-74
2023/11/28 01:46:17;;;;;;;80.60;51.90;;;;;;;-1.24;82.56;95276.48;104583;1262;101716;-74
2023/11/28 01:48:46;;;;;;;80.80;53.80;;;;;;;-1.24;82.58;95271.67;104502;1259;100013;-83
2023/11/28 01:51:14;;;;;;;79.90;52.60;;;;;;;-1.23;82.52;95265.89;104544;1271;98067;-82
2023/11/28 01:53:42;;;;;;;76.30;51.40;;;;;;;-1.24;82.67;95261.73;104567;1262;98504;-83
2023/11/28 01:56:11;;;;;;;86.50;53.30;;;;;;;-1.24;82.69;95258.77;104347;1267;103832;-82
2023/11/28 01:58:40;;;;;;;80.70;52.60;;;;;;;-1.24;82.75;95251.64;104548;1263;100095;-86
2023/11/28 02:01:08;;;;;;;76.70;50.80;;;;;;;-1.23;82.79;95247.48;104536;1262;100136;-79
2023/11/28 02:03:38;;;;;;;76.80;50.50;;;;;;;-1.24;82.76;95241.61;104512;1262;97928;-75
2023/11/28 02:06:06;;;;;;;79.50;51.60;;;;;;;-1.23;82.79;95236.45;104814;1259;98549;-76
2023/11/28 02:08:35;;;;;;;77.10;50.30;;;;;;;-1.23;82.70;95231.85;104779;1263;103783;-73
2023/11/28 02:11:03;;;;;;;74.30;50.10;;;;;;;-1.22;82.90;95225.54;104725;1261;100815;-83
2023/11/28 02:13:32;;;;;;;77.20;50.00;;;;;;;-1.22;82.95;95215.93;104799;1259;100006;-82
2023/11/28 02:16:09;;;;;;;74.30;48.70;;;;;;;-1.20;82.89;95210.44;104713;1272;98853;-74
2023/11/28 02:18:37;;;;;;;74.20;48.50;;;;;;;-1.20;82.91;95203.52;104714;1272;98345;-74
2023/11/28 02:21:05;;;;;;;76.10;49.00;;;;;;;-1.20;82.85;95198.79;104748;1259;102759;-73
2023/11/28 02:23:33;;;;;;;72.60;47.90;;;;;;;-1.20;82.98;95196.50;104779;1259;101524;-74
2023/11/28 02:26:05;;;;;;;83.70;50.70;;;;;;;-1.20;82.96;95195.08;104827;1259;99992;-83
2023/11/28 02:28:35;;;;;;;59.70;39.30;;;;;;;-1.20;83.01;95191.36;104563;1262;98108;-84
2023/11/28 02:31:03;;;;;;;81.70;52.50;;;;;;;-1.21;83.05;95187.70;104772;1255;98380;-83
2023/11/28 02:33:30;;;;;;;80.00;52.80;;;;;;;-1.21;83.14;95180.05;104743;1259;103503;-83
2023/11/28 02:35:58;;;;;;;81.10;52.50;;;;;;;-1.21;83.23;95179.23;104762;1259;101382;-83
2023/11/28 02:38:26;;;;;;;79.80;51.50;;;;;;;-1.18;83.25;95176.64;104750;1269;99071;-82
2023/11/28 02:40:54;;;;;;;78.30;48.70;;;;;;;-1.17;83.29;95172.59;104872;1259;97963;-83
2023/11/28 02:43:22;;;;;;;78.30;48.10;;;;;;;-1.16;83.22;95173.23;104754;1259;98356;-83
2023/11/28 02:45:50;;;;;;;80.30;51.50;;;;;;;-1.16;83.23;95169.95;104733;1256;102546;-83
2023/11/28 02:48:17;;;;;;;81.10;52.30;;;;;;;-1.15;83.27;95167.19;104802;1262;100388;-83
2023/11/28 02:50:45;;;;;;;82.90;51.80;;;;;;;-1.15;83.28;95162.17;104807;1255;98968;-74
2023/11/28 02:53:13;;;;;;;83.00;53.20;;;;;;;-1.16;83.29;95156.39;104724;1259;97990;-75
2023/11/28 02:55:41;;;;;;;84.90;54.70;;;;;;;-1.16;83.26;95157.27;104756;1259;98354;-74
2023/11/28 02:58:09;;;;;;;80.10;52.20;;;;;;;-1.16;83.31;95150.79;104720;1264;102077;-74
2023/11/28 03:00:37;;;;;;;84.30;52.40;;;;;;;-1.16;83.41;95145.10;104717;1257;101187;-76
2023/11/28 03:03:05;;;;;;;85.20;53.70;;;;;;;-1.16;83.48;95142.25;104674;1256;100175;-78
2023/11/28 03:05:33;;;;;;;73.20;47.90;;;;;;;-1.16;83.46;95135.77;104682;1259;98001;-81
2023/11/28 03:08:01;;;;;;;69.80;46.90;;;;;;;-1.15;83.52;95129.34;104719;1257;98526;-78
2023/11/28 03:10:29;;;;;;;67.30;44.10;;;;;;;-1.15;83.55;95121.73;104763;1259;104324;-82
2023/11/28 03:12:57;;;;;;;56.70;38.50;;;;;;;-1.17;83.57;95120.33;104801;1259;99351;-82
2023/11/28 03:15:25;;;;;;;59.10;40.30;;;;;;;-1.18;83.64;95120.11;104676;1257;100234;-82
2023/11/28 03:17:53;;;;;;;63.20;42.90;;;;;;;-1.17;83.68;95117.02;104599;1262;99282;-75
2023/11/28 03:20:21;;;;;;;64.50;43.60;;;;;;;-1.17;83.71;95108.89;104718;1259;98498;-75
2023/11/28 03:22:49;;;;;;;69.90;45.50;;;;;;;-1.15;83.81;95102.17;104693;1259;103524;-75
2023/11/28 03:25:17;;;;;;;80.30;50.60;;;;;;;-1.17;83.80;95098.99;104718;1261;100414;-83
2023/11/28 03:27:45;;;;;;;63.50;41.50;;;;;;;-1.17;83.83;95091.98;104707;1259;98945;-76
2023/11/28 03:30:13;;;;;;;70.50;44.00;;;;;;;-1.17;83.89;95096.74;104702;1257;99163;-74
2023/11/28 03:32:41;;;;;;;59.30;38.70;;;;;;;-1.16;83.98;95091.83;104734;1260;98377;-74
2023/11/28 03:35:11;;;;;;;46.30;31.10;;;;;;;-1.16;84.10;95088.28;104718;1270;103565;-74
2023/11/28 03:37:40;;;;;;;48.30;32.50;;;;;;;-1.15;84.16;95085.36;104774;1271;101364;-74
2023/11/28 03:40:08;;;;;;;44.30;29.60;;;;;;;-1.14;84.17;95079.17;104659;1259;99943;-74
2023/11/28 03:42:36;;;;;;;38.70;28.10;;;;;;;-1.12;84.20;95069.91;104713;1270;98599;-75
2023/11/28 03:45:05;;;;;;;39.40;27.10;;;;;;;-1.10;84.17;95065.44;104766;1273;98402;-76
2023/11/28 03:47:33;;;;;;;34.50;24.00;;;;;;;-1.10;84.24;95064.38;104706;1259;103551;-86
2023/11/28 03:50:01;;;;;;;32.60;22.80;;;;;;;-1.10;84.34;95061.12;104704;1274;100411;-84
2023/11/28 03:52:29;;;;;;;32.00;21.80;;;;;;;-1.09;84.43;95056.92;104684;1259;100243;-82
2023/11/28 03:54:57;;;;;;;30.00;20.60;;;;;;;-1.08;84.51;95054.27;104706;1259;97843;-80
2023/11/28 03:57:25;;;;;;;26.30;19.30;;;;;;;-1.07;84.55;95051.77;104842;1260;98412;-81
2023/11/28 03:59:53;;;;;;;28.60;19.20;;;;;;;-1.06;84.60;95048.98;104733;1271;103538;-82
2023/11/28 04:02:21;;;;;;;28.80;20.60;;;;;;;-1.03;84.65;95045.25;104812;1260;100753;-76
2023/11/28 04:04:48;;;;;;;31.40;21.00;;;;;;;-1.01;84.61;95043.88;104752;1270;98403;-74
2023/11/28 04:07:17;;;;;;;31.20;22.10;;;;;;;-0.98;84.59;95035.95;104703;1260;98875;-75
2023/11/28 04:09:44;;;;;;;31.70;22.10;;;;;;;-0.96;84.62;95032.23;104744;1262;98394;-75
2023/11/28 04:12:12;;;;;;;34.50;22.70;;;;;;;-0.95;84.63;95029.80;104727;1270;103797;-74
2023/11/28 04:14:42;;;;;;;33.00;22.70;;;;;;;-0.93;84.55;95024.87;104766;1273;101360;-78
2023/11/28 04:17:09;;;;;;;30.40;21.60;;;;;;;-0.91;84.59;95018.23;104762;1259;99103;-74
2023/11/28 04:19:37;;;;;;;30.90;20.80;;;;;;;-0.89;84.55;95018.02;104700;1256;98053;-75
2023/11/28 04:22:05;;;;;;;31.00;20.90;;;;;;;-0.87;84.59;95016.11;104731;1259;98438;-82
2023/11/28 04:24:36;;;;;;;31.20;21.70;;;;;;;-0.85;84.61;95014.61;104737;1269;103591;-77
2023/11/28 04:27:04;;;;;;;33.00;22.20;;;;;;;-0.85;84.68;95007.69;104683;1261;101490;-74
2023/11/28 04:29:33;;;;;;;30.30;21.70;;;;;;;-0.84;84.65;95003.56;104701;1257;99090;-77
2023/11/28 04:32:01;;;;;;;33.90;22.70;;;;;;;-0.83;84.70;94993.29;104709;1258;97927;-82
2023/11/28 04:34:29;;;;;;;33.00;22.50;;;;;;;-0.83;84.69;94990.60;104664;1262;99275;-80
2023/11/28 04:36:58;;;;;;;34.10;24.30;;;;;;;-0.83;84.58;94987.41;104756;1259;102544;-83
2023/11/28 04:39:26;;;;;;;41.20;27.70;;;;;;;-0.82;84.63;94982.04;104746;1257;101202;-81
2023/11/28 04:41:54;;;;;;;49.00;30.70;;;;;;;-0.82;84.61;94969.29;104742;1270;100210;-77
2023/11/28 04:44:22;;;;;;;47.30;29.00;;;;;;;-0.82;84.58;94959.91;104730;1260;98747;-82
2023/11/28 04:46:50;;;;;;;87.70;45.60;;;;;;;-0.81;84.61;94955.60;104661;1262;98354;-75
2023/11/28 04:49:18;;;;;;;98.80;51.90;;;;;;;-0.80;84.56;94956.91;104761;1270;103256;-75
2023/11/28 04:51:46;;;;;;;89.10;48.90;;;;;;;-0.80;84.49;94956.39;104795;1257;101290;-74
2023/11/28 04:54:14;;;;;;;88.10;47.10;;;;;;;-0.80;84.50;94951.61;104673;1268;97941;-74
2023/11/28 04:56:42;;;;;;;80.10;43.60;;;;;;;-0.81;84.53;94943.05;104762;1260;97892;-75
2023/11/28 04:59:10;;;;;;;79.80;43.60;;;;;;;-0.81;84.58;94936.48;104742;1270;99111;-76
2023/11/28 05:01:48;;;;;;;70.80;41.80;;;;;;;-0.81;84.65;94931.02;104545;1276;103393;-81
2023/11/28 05:04:16;;;;;;;66.40;38.90;;;;;;;-0.82;84.65;94925.33;104689;1271;100560;-84
2023/11/28 05:06:44;;;;;;;62.40;37.30;;;;;;;-0.81;84.62;94921.58;104740;1264;100163;-84
2023/11/28 05:09:17;;;;;;;63.10;36.30;;;;;;;-0.82;84.72;94918.92;104773;1256;98830;-85
2023/11/28 05:11:48;;;;;;;68.60;36.90;;;;;;;-0.82;84.63;94917.05;104739;1260;98446;-84
2023/11/28 05:14:16;;;;;;;61.00;33.90;;;;;;;-0.83;84.55;94910.48;104660;1269;102492;-83
2023/11/28 05:16:48;;;;;;;47.70;30.00;;;;;;;-0.85;84.50;94906.30;104749;1259;100216;-78
2023/11/28 05:19:36;;;;;;;30.30;21.40;;;;;;;-0.85;84.55;94904.17;104753;1257;99974;-75
2023/11/28 05:22:04;;;;;;;43.00;27.20;;;;;;;-0.86;84.57;94901.70;104757;1259;97906;-84
2023/11/28 05:24:32;;;;;;;47.10;29.60;;;;;;;-0.86;84.67;94896.16;104717;1270;99837;-74
2023/11/28 05:27:02;;;;;;;51.80;31.30;;;;;;;-0.86;84.57;94895.86;104714;1260;103530;-75
2023/11/28 05:29:33;;;;;;;56.00;36.20;;;;;;;-0.86;84.68;94893.59;104746;1259;101691;-76
2023/11/28 05:32:10;;;;;;;69.70;43.10;;;;;;;-0.85;84.59;94895.30;104676;1259;98619;-79
2023/11/28 05:34:46;;;;;;;62.30;40.20;;;;;;;-0.85;84.51;94893.67;104724;1257;97896;-77
2023/11/28 05:37:17;;;;;;;62.50;40.30;;;;;;;-0.85;84.48;94888.71;104808;1257;98452;-75
2023/11/28 05:39:49;;;;;;;52.90;36.50;;;;;;;-0.85;84.60;94885.73;104714;1259;103715;-75
2023/11/28 05:42:17;;;;;;;59.60;37.80;;;;;;;-0.87;84.61;94884.71;104745;1259;100505;-75
2023/11/28 05:44:45;;;;;;;68.10;44.20;;;;;;;-0.87;84.57;94884.46;104792;1269;100119;-75
2023/11/28 05:47:13;;;;;;;67.10;44.80;;;;;;;-0.88;84.60;94882.70;104746;1257;97925;-83
2023/11/28 05:49:41;;;;;;;65.10;44.80;;;;;;;-0.87;84.63;94881.73;104878;1256;98704;-83
2023/11/28 05:52:12;;;;;;;84.60;54.30;;;;;;;-0.86;84.71;94881.58;104700;1259;102740;-83
2023/11/28 05:54:50;;;;;;;84.70;55.70;;;;;;;-0.84;84.70;94874.46;104801;1259;101410;-83
2023/11/28 05:57:19;;;;;;;73.70;49.10;;;;;;;-0.86;84.69;94873.30;104730;1267;98703;-75
2023/11/28 05:59:51;;;;;;;71.90;46.50;;;;;;;-0.88;84.65;94870.73;104668;1262;98002;-84
2023/11/28 06:02:19;;;;;;;68.70;45.10;;;;;;;-0.88;84.72;94870.27;104705;1259;97976;-83
2023/11/28 06:04:47;;;;;;;59.80;41.90;;;;;;;-0.89;84.66;94872.64;104736;1259;103438;-83
2023/11/28 06:07:15;;;;;;;61.40;42.40;;;;;;;-0.89;84.68;94874.27;104709;1257;100172;-87
2023/11/28 06:09:43;;;;;;;71.80;47.80;;;;;;;-0.87;84.85;94874.20;104739;1270;98491;-85
2023/11/28 06:12:11;;;;;;;78.80;52.40;;;;;;;-0.84;84.90;94871.05;104701;1269;97937;-83
2023/11/28 06:14:39;;;;;;;95.90;62.00;;;;;;;-0.80;84.88;94869.14;104816;1259;98344;-83
2023/11/28 06:17:07;;;;;;;95.40;62.70;;;;;;;-0.79;84.81;94873.83;104725;1256;102891;-83
2023/11/28 06:19:35;;;;;;;101.90;67.30;;;;;;;-0.79;84.76;94872.60;104714;1257;100154;-82
2023/11/28 06:22:03;;;;;;;83.40;55.80;;;;;;;-0.80;84.74;94873.20;104795;1259;99055;-84
2023/11/28 06:24:31;;;;;;;86.00;55.60;;;;;;;-0.80;84.78;94868.57;104748;1260;97938;-85
2023/11/28 06:26:59;;;;;;;78.90;51.30;;;;;;;-0.79;84.78;94874.52;104812;1260;97835;-82
2023/11/28 06:29:27;;;;;;;77.30;51.60;;;;;;;-0.80;84.76;94873.54;104767;1260;103675;-84
2023/11/28 06:31:59;;;;;;;69.30;47.80;;;;;;;-0.79;84.75;94873.25;104760;1259;100445;-75
2023/11/28 06:34:27;;;;;;;76.80;49.80;;;;;;;-0.77;84.79;94869.67;104723;1259;98850;-75
2023/11/28 06:36:55;;;;;;;59.90;40.40;;;;;;;-0.75;84.81;94871.96;104719;1259;97990;-84
2023/11/28 06:39:27;;;;;;;60.00;41.10;;;;;;;-0.74;84.85;94867.08;104709;1269;98527;-83
2023/11/28 06:41:56;;;;;;;64.30;46.80;;;;;;;-0.71;84.87;94869.05;104815;1259;103062;-82
2023/11/28 06:44:25;;;;;;;59.70;41.50;;;;;;;-0.69;84.80;94866.23;104765;1260;101399;-83
2023/11/28 06:46:53;;;;;;;63.80;47.80;;;;;;;-0.68;84.76;94867.52;104715;1271;98557;-75
2023/11/28 06:49:21;;;;;;;66.70;49.10;;;;;;;-0.65;84.71;94872.49;104737;1278;97909;-76
2023/11/28 06:51:48;;;;;;;67.30;48.20;;;;;;;-0.66;84.64;94871.48;104702;1270;98424;-75
2023/11/28 06:54:17;;;;;;;68.00;53.00;;;;;;;-0.62;84.71;94871.73;104697;1264;103792;-76
2023/11/28 06:56:45;;;;;;;81.40;64.80;;;;;;;-0.60;84.69;94873.71;104518;1275;101321;-85
2023/11/28 06:59:13;;;;;;;85.90;64.70;;;;;;;-0.61;84.57;94875.48;104702;1263;99950;-82
2023/11/28 07:01:41;;;;;;;91.00;71.90;;;;;;;-0.61;84.50;94875.10;104758;1260;97921;-75
2023/11/28 07:04:09;;;;;;;87.30;64.60;;;;;;;-0.61;84.55;94871.88;104700;1262;98846;-74
2023/11/28 07:06:44;;;;;;;86.80;66.30;;;;;;;-0.61;84.63;94867.43;104764;1261;103843;-74
2023/11/28 07:09:12;;;;;;;88.10;65.10;;;;;;;-0.62;84.58;94866.71;104754;1270;101596;-76
2023/11/28 07:11:41;;;;;;;135.70;101.90;;;;;;;-0.63;84.64;94867.36;104725;1259;99938;-76
2023/11/28 07:14:09;;;;;;;115.70;86.50;;;;;;;-0.63;84.61;94866.91;104743;1270;97875;-75
2023/11/28 07:16:37;;;;;;;116.50;83.50;;;;;;;-0.63;84.76;94867.44;104742;1270;97926;-77
2023/11/28 07:19:05;;;;;;;90.20;68.40;;;;;;;-0.64;84.72;94860.06;104692;1263;103128;-83
2023/11/28 07:21:33;;;;;;;89.00;63.80;;;;;;;-0.63;84.68;94860.35;104725;1260;100164;-84
2023/11/28 07:24:01;;;;;;;88.70;67.80;;;;;;;-0.64;84.81;94861.29;104700;1260;98871;-85
2023/11/28 07:26:29;;;;;;;86.20;62.50;;;;;;;-0.64;84.69;94857.98;104677;1260;97897;-83
2023/11/28 07:28:57;;;;;;;86.10;61.90;;;;;;;-0.63;84.75;94859.54;104717;1270;98472;-83
2023/11/28 07:31:28;;;;;;;83.80;60.30;;;;;;;-0.63;84.78;94858.39;104777;1266;103753;-76
2023/11/28 07:33:56;;;;;;;61.50;42.50;;;;;;;-0.61;84.77;94857.94;104661;1267;100133;-76
2023/11/28 07:36:24;;;;;;;81.60;57.10;;;;;;;-0.59;84.85;94860.09;104725;1263;100066;-83
2023/11/28 07:38:52;;;;;;;79.80;57.20;;;;;;;-0.57;84.89;94858.95;104547;1273;98179;-75
2023/11/28 07:41:20;;;;;;;82.40;57.80;;;;;;;-0.54;84.91;94857.98;104647;1271;98479;-76
2023/11/28 07:43:50;;;;;;;74.00;53.10;;;;;;;-0.51;84.89;94856.60;104706;1269;102634;-76
2023/11/28 10:04:14;;;;;;;42.90;30.20;;;;;;;0.97;84.15;94748.30;104741;1262;104052;-82
2023/11/28 10:06:45;;;;;;;30.10;21.90;;;;;;;1.03;84.10;94742.84;104673;1260;101351;-82
2023/11/28 10:09:15;;;;;;;30.40;21.70;;;;;;;1.08;83.96;94744.83;104719;1258;99965;-78
2023/11/28 10:11:44;;;;;;;29.00;21.90;;;;;;;1.13;83.92;94743.65;104703;1258;99246;-76
2023/11/28 10:14:21;;;;;;;29.30;21.20;;;;;;;1.18;83.89;94744.03;104694;1260;99291;-76
2023/11/28 10:16:51;;;;;;;25.50;19.40;;;;;;;1.23;83.78;94741.35;104696;1271;103572;-76
2023/11/28 10:19:19;;;;;;;27.80;19.80;;;;;;;1.27;83.53;94741.16;104625;1271;99948;-76
2023/11/28 10:21:48;;;;;;;34.00;23.20;;;;;;;1.28;83.32;94737.76;104667;1272;100086;-76
2023/11/28 10:24:17;;;;;;;33.00;22.00;;;;;;;1.32;83.24;94732.72;104726;1260;99088;-76
2023/11/28 10:26:46;;;;;;;33.40;23.70;;;;;;;1.38;83.29;94724.66;104709;1260;98450;-80
2023/11/28 10:29:14;;;;;;;34.00;24.30;;;;;;;1.42;83.12;94724.91;104664;1261;103814;-79
2023/11/28 10:31:42;;;;;;;35.10;24.20;;;;;;;1.45;83.02;94723.80;104647;1261;100254;-83
2023/11/28 10:34:11;;;;;;;33.60;22.70;;;;;;;1.48;82.88;94724.27;104685;1260;99008;-81
2023/11/28 10:36:42;;;;;;;34.00;24.70;;;;;;;1.51;82.87;94722.11;104701;1260;97968;-80
2023/11/28 10:39:12;;;;;;;31.80;23.70;;;;;;;1.53;82.80;94717.10;104693;1270;97869;-80
2023/11/28 10:41:42;;;;;;;32.80;22.80;;;;;;;1.56;82.72;94716.55;104696;1270;104047;-83
2023/11/28 10:44:11;;;;;;;32.00;23.00;;;;;;;1.59;82.75;94716.45;104685;1267;109008;-83
2023/11/28 10:46:40;;;;;;;33.50;24.00;;;;;;;1.65;82.87;94712.23;104685;1263;98910;-83
2023/11/28 10:49:11;;;;;;;32.60;22.80;;;;;;;1.71;82.81;94712.77;104678;1260;99265;-84
2023/11/28 10:51:39;;;;;;;31.80;23.70;;;;;;;1.71;82.57;94710.05;104676;1261;99509;-81
2023/11/28 10:54:09;;;;;;;32.60;24.20;;;;;;;1.71;82.50;94704.95;104699;1262;102287;-83
2023/11/28 10:56:55;;;;;;;34.90;23.90;;;;;;;1.75;82.56;94701.35;104668;1279;111019;-82
2023/11/28 10:59:50;;;;;;;34.50;24.80;;;;;;;1.79;82.48;94699.42;104406;1276;100436;-83
2023/11/28 11:02:19;;;;;;;34.50;25.70;;;;;;;1.83;82.28;94694.87;104547;1269;97986;-82
2023/11/28 11:04:50;;;;;;;35.30;24.00;;;;;;;1.85;82.16;94693.66;104697;1270;98735;-77
2023/11/28 11:07:18;;;;;;;34.00;23.90;;;;;;;1.90;82.16;94692.88;104800;1271;102642;-78
2023/11/28 11:09:50;;;;;;;32.10;22.90;;;;;;;1.94;82.01;94690.77;104869;1260;101448;-78
2023/11/28 11:12:20;;;;;;;31.40;22.60;;;;;;;1.97;81.82;94690.15;104790;1263;99035;-76
2023/11/28 11:15:27;;;;;;;34.90;23.00;;;;;;;1.99;81.82;94688.61;104918;1263;97909;-77
2023/11/28 11:18:08;;;;;;;32.50;22.50;;;;;;;2.02;81.59;94687.52;104551;1271;98378;-76
2023/11/28 11:20:49;;;;;;;30.00;20.40;;;;;;;2.03;81.55;94691.36;104772;1270;103613;-77
2023/11/28 11:23:27;;;;;;;30.10;19.50;;;;;;;2.06;81.43;94692.05;104762;1270;100342;-77
2023/11/28 11:26:00;;;;;;;28.30;19.70;;;;;;;2.08;81.27;94688.53;104830;1270;99106;-78
2023/11/28 11:28:37;;;;;;;33.00;21.70;;;;;;;2.09;81.08;94684.48;104649;1278;98005;-77
2023/11/28 11:31:15;;;;;;;31.10;19.70;;;;;;;2.11;81.10;94683.34;104805;1259;98373;-78
2023/11/28 11:33:43;;;;;;;28.50;18.70;;;;;;;2.13;80.97;94683.57;104799;1261;103713;-78
2023/11/28 11:36:14;;;;;;;30.70;18.70;;;;;;;2.19;81.14;94685.70;104925;1258;100349;-78
2023/11/28 11:38:47;;;;;;;26.30;18.50;;;;;;;2.27;80.97;94684.48;104513;1263;100115;-78
2023/11/28 11:41:26;;;;;;;30.50;20.90;;;;;;;2.29;80.59;94684.42;104814;1260;99170;-78
2023/11/28 11:43:56;;;;;;;31.10;20.70;;;;;;;2.26;80.62;94687.28;104791;1259;98546;-80
2023/11/28 11:46:28;;;;;;;32.70;21.60;;;;;;;2.25;80.62;94687.01;104811;1261;103525;-83
2023/11/28 11:48:58;;;;;;;69.60;51.60;;;;;;;2.28;80.61;94686.23;104743;1270;100372;-84
2023/11/28 11:51:29;;;;;;;67.70;50.00;;;;;;;2.33;80.80;94685.38;104566;1267;100214;-84
2023/11/28 11:54:05;;;;;;;34.80;24.40;;;;;;;2.33;80.77;94688.48;104754;1260;98052;-84
2023/11/28 11:56:33;;;;;;;34.60;24.10;;;;;;;2.33;80.74;94690.98;104765;1256;99522;-85
2023/11/28 11:59:04;;;;;;;37.40;27.40;;;;;;;2.33;80.85;94694.70;104758;1267;103709;-85
2023/11/28 12:01:35;;;;;;;41.90;29.10;;;;;;;2.36;81.00;94696.27;104773;1262;100126;-81
2023/11/28 12:04:03;;;;;;;47.50;33.00;;;;;;;2.41;81.01;94693.00;104729;1261;99065;-77
2023/11/28 12:06:31;;;;;;;49.90;33.80;;;;;;;2.46;81.06;94697.02;104751;1259;98817;-84
2023/11/28 12:09:00;;;;;;;57.50;35.20;;;;;;;2.51;81.08;94695.77;104872;1260;98380;-84
2023/11/28 12:11:28;;;;;;;48.20;33.90;;;;;;;2.53;81.07;94696.94;104853;1270;103558;-83
2023/11/28 12:14:05;;;;;;;49.00;32.50;;;;;;;2.50;80.93;94694.84;104802;1259;100142;-85
2023/11/28 12:16:33;;;;;;;49.00;34.40;;;;;;;2.48;81.07;94692.08;104788;1270;99037;-80
2023/11/28 12:19:09;;;;;;;53.80;36.40;;;;;;;2.51;81.11;94693.60;104618;1270;98027;-80
2023/11/28 12:21:52;;;;;;;58.30;40.10;;;;;;;2.54;81.04;94696.25;104875;1258;98840;-78
2023/11/28 12:24:22;;;;;;;60.20;41.30;;;;;;;2.54;80.95;94698.70;104764;1257;103699;-80
2023/11/28 12:27:19;;;;;;;55.70;37.70;;;;;;;2.55;80.86;94698.16;104849;1259;101393;-80
2023/11/28 12:29:50;;;;;;;48.90;33.30;;;;;;;2.54;80.79;94696.53;104696;1260;99023;-80
2023/11/28 12:32:20;;;;;;;44.80;31.70;;;;;;;2.52;80.68;94700.02;104808;1257;97902;-78
2023/11/28 12:34:51;;;;;;;43.30;30.60;;;;;;;2.48;80.61;94697.20;104818;1257;99272;-77
2023/11/28 12:37:50;;;;;;;49.40;34.60;;;;;;;2.47;80.62;94698.36;104805;1260;103745;-77
2023/11/28 12:40:22;;;;;;;49.60;31.60;;;;;;;2.45;80.65;94702.85;104839;1261;100473;-78
2023/11/28 12:43:29;;;;;;;45.10;30.80;;;;;;;2.39;80.50;94710.45;104739;1260;107101;-80
2023/11/28 12:46:00;;;;;;;44.30;30.50;;;;;;;2.31;80.51;94708.61;104719;1263;99177;-78
2023/11/28 12:48:47;;;;;;;44.80;31.10;;;;;;;2.30;80.54;94708.62;104831;1260;98356;-79
2023/11/28 12:51:19;;;;;;;44.30;31.60;;;;;;;2.31;80.64;94713.65;104929;1272;102298;-78
2023/11/28 12:53:49;;;;;;;47.80;33.70;;;;;;;2.31;80.65;94714.23;104765;1260;100457;-79
2023/11/28 12:56:31;;;;;;;47.90;34.10;;;;;;;2.27;80.63;94716.02;104764;1270;100060;-78
2023/11/28 12:58:59;;;;;;;49.00;35.10;;;;;;;2.21;80.63;94715.27;104691;1259;98159;-78
2023/11/28 13:01:29;;;;;;;49.30;36.20;;;;;;;2.18;80.65;94715.21;104750;1260;99506;-87
2023/11/28 13:04:01;;;;;;;50.90;36.30;;;;;;;2.10;80.63;94716.39;104732;1262;103588;-78
2023/11/28 13:06:31;;;;;;;;;;;;;;;2.02;80.64;94719.20;104874;1259;101373;-78
2023/11/28 13:09:15;;;;;;;57.70;38.50;;;;;;;1.94;80.83;94716.58;104784;1259;99322;-79
2023/11/28 13:11:47;;;;;;;52.00;35.10;;;;;;;1.95;81.04;94725.16;104810;1260;98212;-78
2023/11/28 13:14:24;;;;;;;56.60;38.50;;;;;;;1.97;80.99;94725.55;104775;1256;97932;-78
2023/11/28 13:17:01;;;;;;;62.50;43.30;;;;;;;1.98;81.03;94725.66;100919;1261;5422051;-79
2023/11/28 13:19:29;;;;;;;64.00;41.40;;;;;;;2.01;81.20;94727.25;104780;1270;99957;-77
2023/11/28 13:22:07;;;;;;;64.40;42.00;;;;;;;2.04;81.20;94728.68;104810;1267;97908;-78
2023/11/28 13:24:44;;;;;;;58.50;38.10;;;;;;;2.06;81.09;94733.89;104573;1263;98547;-79
2023/11/28 13:27:12;;;;;;;54.20;36.00;;;;;;;2.04;81.02;94728.84;104479;1268;102376;-80
2023/11/28 13:29:49;;;;;;;48.00;33.10;;;;;;;2.04;80.97;94732.77;104483;1261;100168;-82
2023/11/28 13:32:17;;;;;;;52.30;33.70;;;;;;;2.04;80.99;94735.97;104610;1261;100267;-86
2023/11/28 13:34:45;;;;;;;50.10;33.10;;;;;;;2.03;81.06;94735.04;104356;1264;99269;-85
2023/11/28 13:37:18;;;;;;;54.00;35.10;;;;;;;2.03;81.02;94740.77;104510;1264;98754;-86
2023/11/28 13:39:48;;;;;;;50.60;33.40;;;;;;;2.02;80.95;94738.52;104456;1264;103585;-87